^^
Datos históricos de la estación: Murcia-Puente Tocinos
Diario Informe para Marzo 25, 2019 Unidades:  Ambas    Inglés   Métrico
Diario Semanal Mensual Anual Configurable
  Máximo: Mínimo: Media:
Temperatura: 72 °F /  22.2 °C 48.9 °F /  9.4 °C 59.9 °F /  15.5 °C
Punto de rocio: 44.4 °F /  6.9 °C 33.3 °F /  0.7 °C 39 °F /  3.9 °C
Humedad: 66% 26% 48%
Velocidad viento: 10.7mph /  17.2km/h - 4.8mph /  7.8km/h
Racha viento: 17.3mph /  27.8km/h - -
Viento- - SE
Presión: 30.1 in /  1020.7 hPa 30 in /  1014.9 hPa -
Precipitación: 0 in /  0.0 mm    
Historical Graphs
 
 
Tabla de datos para Marzo 25, 2019
Hora Temperatura Punto de rocio Presión Viento Velocidad viento Racha viento Humedad Intensidad lluvia(por hora) Nubes
00:04 54.7 °F /  12.6 °C 41.9 °F /  5.5 °C 30.1in /  1020.7hPa Calm     62% 0in /  0.0mm CLR
00:10 54.7 °F /  12.6 °C 41.9 °F /  5.5 °C 30.1in /  1020.7hPa Calm     62% 0in /  0.0mm CLR
00:14 54.5 °F /  12.5 °C 42.3 °F /  5.7 °C 30.1in /  1020.7hPa Calm     63% 0in /  0.0mm CLR
00:20 54.3 °F /  12.4 °C 42.1 °F /  5.6 °C 30.1in /  1020.6hPa Calm     63% 0in /  0.0mm CLR
00:25 54.3 °F /  12.4 °C 41.5 °F /  5.3 °C 30.1in /  1020.6hPa Calm     62% 0in /  0.0mm CLR
00:29 54.1 °F /  12.3 °C 41.4 °F /  5.2 °C 30.1in /  1020.6hPa Calm     62% 0in /  0.0mm CLR
00:35 54.1 °F /  12.3 °C 41.4 °F /  5.2 °C 30.1in /  1020.4hPa Calm     62% 0in /  0.0mm CLR
00:39 54 °F /  12.2 °C 41.2 °F /  5.1 °C 30.1in /  1020.4hPa Calm     62% 0in /  0.0mm CLR
00:45 54 °F /  12.2 °C 40.8 °F /  4.9 °C 30.1in /  1020.4hPa Calm   5mph /  8.0km/h 61% 0in /  0.0mm CLR
00:49 53.8 °F /  12.1 °C 40.6 °F /  4.8 °C 30.1in /  1020.4hPa ESE 2.4mph /  3.9km/h 4.6mph /  7.4km/h 61% 0in /  0.0mm CLR
00:55 53.4 °F /  11.9 °C 40.3 °F /  4.6 °C 30.1in /  1020.4hPa SE 2mph /  3.2km/h 5mph /  8.0km/h 61% 0in /  0.0mm CLR
00:59 53.4 °F /  11.9 °C 40.3 °F /  4.6 °C 30.1in /  1020.4hPa SSE 2.9mph /  4.7km/h 4.6mph /  7.4km/h 61% 0in /  0.0mm CLR
01:05 53.4 °F /  11.9 °C 40.3 °F /  4.6 °C 30.1in /  1020.3hPa SSE 2.9mph /  4.7km/h 6.9mph /  11.1km/h 61% 0in /  0.0mm CLR
01:10 53.4 °F /  11.9 °C 40.3 °F /  4.6 °C 30.1in /  1020.3hPa SSE 3mph /  4.8km/h 7mph /  11.3km/h 61% 0in /  0.0mm CLR
01:15 53.2 °F /  11.8 °C 40.3 °F /  4.6 °C 30.1in /  1020.3hPa SSE 3mph /  4.8km/h 6mph /  9.7km/h 61% 0in /  0.0mm CLR
01:20 53.2 °F /  11.8 °C 40.1 °F /  4.5 °C 30.1in /  1020.2hPa SSE 5mph /  8.0km/h 6mph /  9.7km/h 61% 0in /  0.0mm CLR
01:25 53.4 °F /  11.9 °C 40.3 °F /  4.6 °C 30.1in /  1020.2hPa South 4mph /  6.4km/h 4.7mph /  7.6km/h 61% 0in /  0.0mm CLR
01:29 53.4 °F /  11.9 °C 40.3 °F /  4.6 °C 30.1in /  1020.2hPa South 3.1mph /  5.0km/h 3.5mph /  5.6km/h 61% 0in /  0.0mm CLR
01:35 53.4 °F /  11.9 °C 40.6 °F /  4.8 °C 30.1in /  1020.1hPa SSW 3mph /  4.8km/h 5mph /  8.0km/h 62% 0in /  0.0mm CLR
01:39 53.2 °F /  11.8 °C 40.5 °F /  4.7 °C 30.1in /  1020.1hPa SW 2.9mph /  4.7km/h 3.5mph /  5.6km/h 62% 0in /  0.0mm CLR
01:45 53.1 °F /  11.7 °C 40.8 °F /  4.9 °C 30.1in /  1020.1hPa SW 2mph /  3.2km/h 3mph /  4.8km/h 63% 0in /  0.0mm CLR
01:50 53.1 °F /  11.7 °C 40.8 °F /  4.9 °C 30.1in /  1020.2hPa SW 2mph /  3.2km/h 3mph /  4.8km/h 63% 0in /  0.0mm CLR
01:55 53.1 °F /  11.7 °C 40.8 °F /  4.9 °C 30.1in /  1020.2hPa SW 1.8mph /  2.9km/h   63% 0in /  0.0mm CLR
02:00 53.1 °F /  11.7 °C 40.8 °F /  4.9 °C 30.1in /  1020.2hPa Calm   5mph /  8.0km/h 63% 0in /  0.0mm CLR
02:05 52.9 °F /  11.6 °C 40.3 °F /  4.6 °C 30.1in /  1020.2hPa Calm   3.5mph /  5.6km/h 62% 0in /  0.0mm CLR
02:09 52.9 °F /  11.6 °C 40.3 °F /  4.6 °C 30.1in /  1020.2hPa South 2.9mph /  4.7km/h 4.6mph /  7.4km/h 62% 0in /  0.0mm CLR
02:15 52.5 °F /  11.4 °C 39.9 °F /  4.4 °C 30.1in /  1020.2hPa South 2mph /  3.2km/h 6mph /  9.7km/h 62% 0in /  0.0mm CLR
02:19 52.7 °F /  11.5 °C 39.9 °F /  4.4 °C 30.1in /  1020.1hPa SSW 3.6mph /  5.8km/h 5.8mph /  9.3km/h 62% 0in /  0.0mm CLR
02:25 52.7 °F /  11.5 °C 39.6 °F /  4.2 °C 30.1in /  1020.1hPa SSW 3mph /  4.8km/h 6mph /  9.7km/h 61% 0in /  0.0mm CLR
02:30 52.5 °F /  11.4 °C 39.6 °F /  4.2 °C 30.1in /  1020.1hPa SSW 3mph /  4.8km/h 5mph /  8.0km/h 61% 0in /  0.0mm CLR
02:35 52.5 °F /  11.4 °C 39.6 °F /  4.2 °C 30.1in /  1019.8hPa SW 3.1mph /  5.0km/h 4.6mph /  7.4km/h 61% 0in /  0.0mm CLR
02:40 52.5 °F /  11.4 °C 39.6 °F /  4.2 °C 30.1in /  1019.8hPa SSW 2mph /  3.2km/h 5.8mph /  9.3km/h 61% 0in /  0.0mm CLR
02:45 52.5 °F /  11.4 °C 39.6 °F /  4.2 °C 30.1in /  1019.8hPa SSW 2mph /  3.2km/h 6mph /  9.7km/h 61% 0in /  0.0mm CLR
02:49 52.2 °F /  11.2 °C 39 °F /  3.9 °C 30.1in /  1019.8hPa South 4mph /  6.4km/h 6.9mph /  11.1km/h 61% 0in /  0.0mm CLR
02:55 52 °F /  11.1 °C 38.8 °F /  3.8 °C 30.1in /  1019.8hPa South 4mph /  6.4km/h 8.1mph /  13.0km/h 61% 0in /  0.0mm CLR
03:00 52.2 °F /  11.2 °C 38.7 °F /  3.7 °C 30.1in /  1019.8hPa SSW 5mph /  8.0km/h 8mph /  12.9km/h 60% 0in /  0.0mm CLR
03:05 52.2 °F /  11.2 °C 38.7 °F /  3.7 °C 30.1in /  1019.7hPa SSW 5mph /  8.0km/h 8mph /  12.9km/h 60% 0in /  0.0mm CLR
03:10 52.2 °F /  11.2 °C 38.7 °F /  3.7 °C 30.1in /  1019.7hPa SSW 5mph /  8.0km/h 8mph /  12.9km/h 60% 0in /  0.0mm CLR
03:15 52.3 °F /  11.3 °C 38.8 °F /  3.8 °C 30.1in /  1019.7hPa SSW 5mph /  8.0km/h 9mph /  14.5km/h 60% 0in /  0.0mm CLR
03:20 52.3 °F /  11.3 °C 38.8 °F /  3.8 °C 30.1in /  1019.4hPa SW 5mph /  8.0km/h 6mph /  9.7km/h 60% 0in /  0.0mm CLR
03:25 52.5 °F /  11.4 °C 39 °F /  3.9 °C 30.1in /  1019.4hPa SSE 4mph /  6.4km/h 5.8mph /  9.3km/h 60% 0in /  0.0mm CLR
03:30 52.5 °F /  11.4 °C 39 °F /  3.9 °C 30.1in /  1019.4hPa SSW 4mph /  6.4km/h 6.9mph /  11.1km/h 60% 0in /  0.0mm CLR
03:35 52.3 °F /  11.3 °C 38.8 °F /  3.8 °C 30.1in /  1019.5hPa South 5mph /  8.0km/h 8mph /  12.9km/h 60% 0in /  0.0mm CLR
03:39 52.5 °F /  11.4 °C 39 °F /  3.9 °C 30.1in /  1019.5hPa SW 4.7mph /  7.6km/h 6.9mph /  11.1km/h 60% 0in /  0.0mm CLR
03:45 52.5 °F /  11.4 °C 39 °F /  3.9 °C 30.1in /  1019.5hPa SSW 5mph /  8.0km/h 8mph /  12.9km/h 60% 0in /  0.0mm CLR
03:49 52.5 °F /  11.4 °C 39 °F /  3.9 °C 30.1in /  1019.3hPa SW 4.7mph /  7.6km/h 6.9mph /  11.1km/h 60% 0in /  0.0mm CLR
03:55 52.5 °F /  11.4 °C 39 °F /  3.9 °C 30.1in /  1019.3hPa SW 5mph /  8.0km/h 8mph /  12.9km/h 60% 0in /  0.0mm CLR
04:00 52.5 °F /  11.4 °C 39 °F /  3.9 °C 30.1in /  1019.3hPa SSW 5mph /  8.0km/h 9mph /  14.5km/h 60% 0in /  0.0mm CLR
04:05 52.5 °F /  11.4 °C 39 °F /  3.9 °C 30.1in /  1019.2hPa SSW 5mph /  8.0km/h 9mph /  14.5km/h 60% 0in /  0.0mm CLR
04:10 52.5 °F /  11.4 °C 39 °F /  3.9 °C 30.1in /  1019.2hPa SSW 6mph /  9.7km/h 8mph /  12.9km/h 60% 0in /  0.0mm CLR
04:15 52.5 °F /  11.4 °C 39 °F /  3.9 °C 30.1in /  1019.2hPa SSW 5.9mph /  9.5km/h 5.8mph /  9.3km/h 60% 0in /  0.0mm CLR
04:20 52.5 °F /  11.4 °C 38.7 °F /  3.7 °C 30.1in /  1019.3hPa SSW 5mph /  8.0km/h 7mph /  11.3km/h 59% 0in /  0.0mm CLR
04:25 52.7 °F /  11.5 °C 38.8 °F /  3.8 °C 30.1in /  1019.3hPa South 5.2mph /  8.4km/h 8.1mph /  13.0km/h 59% 0in /  0.0mm CLR
04:30 53.1 °F /  11.7 °C 39 °F /  3.9 °C 30.1in /  1019.3hPa SSW 5mph /  8.0km/h 9mph /  14.5km/h 59% 0in /  0.0mm CLR
04:34 53.2 °F /  11.8 °C 38.8 °F /  3.8 °C 30.1in /  1019.2hPa WSW 5.2mph /  8.4km/h 8.1mph /  13.0km/h 58% 0in /  0.0mm CLR
04:40 53.4 °F /  11.9 °C 39 °F /  3.9 °C 30.1in /  1019.2hPa SW 6mph /  9.7km/h 7mph /  11.3km/h 58% 0in /  0.0mm CLR
04:45 53.4 °F /  11.9 °C 39 °F /  3.9 °C 30.1in /  1019.2hPa SW 6mph /  9.7km/h 9mph /  14.5km/h 58% 0in /  0.0mm CLR
04:50 53.1 °F /  11.7 °C 38.7 °F /  3.7 °C 30.1in /  1019.2hPa SW 5mph /  8.0km/h 9mph /  14.5km/h 58% 0in /  0.0mm CLR
04:55 52.9 °F /  11.6 °C 38.5 °F /  3.6 °C 30.1in /  1019.2hPa WSW 5.2mph /  8.4km/h 6.9mph /  11.1km/h 58% 0in /  0.0mm CLR
05:00 52.9 °F /  11.6 °C 38.5 °F /  3.6 °C 30.1in /  1019.2hPa SW 6mph /  9.7km/h 8mph /  12.9km/h 58% 0in /  0.0mm CLR
05:05 52.7 °F /  11.5 °C 38.3 °F /  3.5 °C 30.1in /  1019.2hPa West 5.4mph /  8.7km/h 6.9mph /  11.1km/h 58% 0in /  0.0mm CLR
05:10 52.5 °F /  11.4 °C 38.7 °F /  3.7 °C 30.1in /  1019.2hPa WSW 5mph /  8.0km/h 8mph /  12.9km/h 59% 0in /  0.0mm CLR
05:15 52.5 °F /  11.4 °C 38.7 °F /  3.7 °C 30.1in /  1019.2hPa WSW 4.7mph /  7.6km/h 6.9mph /  11.1km/h 59% 0in /  0.0mm CLR
05:20 52.3 °F /  11.3 °C 38.5 °F /  3.6 °C 30.1in /  1019.2hPa WSW 5mph /  8.0km/h 7mph /  11.3km/h 59% 0in /  0.0mm CLR
05:25 52.2 °F /  11.2 °C 38.3 °F /  3.5 °C 30.1in /  1019.2hPa WSW 5mph /  8.0km/h 7mph /  11.3km/h 59% 0in /  0.0mm CLR
05:30 52 °F /  11.1 °C 38.1 °F /  3.4 °C 30.1in /  1019.2hPa WSW 5mph /  8.0km/h 6mph /  9.7km/h 59% 0in /  0.0mm CLR
05:35 51.8 °F /  11.0 °C 38.3 °F /  3.5 °C 30.1in /  1019.3hPa SSW 4mph /  6.4km/h 5.8mph /  9.3km/h 60% 0in /  0.0mm CLR
05:40 51.4 °F /  10.8 °C 37.9 °F /  3.3 °C 30.1in /  1019.3hPa WSW 2.4mph /  3.9km/h 5.8mph /  9.3km/h 60% 0in /  0.0mm CLR
05:45 51.3 °F /  10.7 °C 37.8 °F /  3.2 °C 30.1in /  1019.3hPa SW 2mph /  3.2km/h 6mph /  9.7km/h 60% 0in /  0.0mm CLR
05:50 51.3 °F /  10.7 °C 37.8 °F /  3.2 °C 30.1in /  1019.2hPa West 3.1mph /  5.0km/h 4.6mph /  7.4km/h 60% 0in /  0.0mm CLR
05:55 51.1 °F /  10.6 °C 37.8 °F /  3.2 °C 30.1in /  1019.2hPa WSW 3mph /  4.8km/h 5mph /  8.0km/h 60% 0in /  0.0mm CLR
06:00 50.9 °F /  10.5 °C 37.9 °F /  3.3 °C 30.1in /  1019.2hPa SW 3mph /  4.8km/h 5mph /  8.0km/h 61% 0in /  0.0mm CLR
06:05 50.4 °F /  10.2 °C 38.1 °F /  3.4 °C 30.1in /  1019.1hPa SSE 3.1mph /  5.0km/h 4.7mph /  7.6km/h 63% 0in /  0.0mm CLR
06:10 49.8 °F /  9.9 °C 38.1 °F /  3.4 °C 30.1in /  1019.1hPa SSE 3mph /  4.8km/h 6mph /  9.7km/h 64% 0in /  0.0mm CLR
06:15 49.3 °F /  9.6 °C 37.9 °F /  3.3 °C 30.1in /  1019.1hPa SSE 3.6mph /  5.8km/h 6.9mph /  11.1km/h 65% 0in /  0.0mm CLR
06:19 48.9 °F /  9.4 °C 38.1 °F /  3.4 °C 30.1in /  1019.1hPa SSW 5.2mph /  8.4km/h 7.4mph /  11.9km/h 66% 0in /  0.0mm CLR
06:25 48.9 °F /  9.4 °C 38.1 °F /  3.4 °C 30.1in /  1019.1hPa South 5mph /  8.0km/h 7mph /  11.3km/h 66% 0in /  0.0mm CLR
06:30 49.1 °F /  9.5 °C 38.1 °F /  3.4 °C 30.1in /  1019.1hPa SSW 5.2mph /  8.4km/h 6.9mph /  11.1km/h 66% 0in /  0.0mm CLR
06:35 49.5 °F /  9.7 °C 38.1 °F /  3.4 °C 30.1in /  1019.2hPa SW 5.2mph /  8.4km/h 6.9mph /  11.1km/h 65% 0in /  0.0mm CLR
06:39 49.6 °F /  9.8 °C 38.3 °F /  3.5 °C 30.1in /  1019.2hPa SW 4.7mph /  7.6km/h 8.1mph /  13.0km/h 65% 0in /  0.0mm CLR
06:45 49.8 °F /  9.9 °C 38.1 °F /  3.4 °C 30.1in /  1019.2hPa SW 5mph /  8.0km/h 9mph /  14.5km/h 64% 0in /  0.0mm CLR
06:50 50.2 °F /  10.1 °C 38.1 °F /  3.4 °C 30.1in /  1019.1hPa SW 5mph /  8.0km/h 9mph /  14.5km/h 63% 0in /  0.0mm CLR
06:55 50.4 °F /  10.2 °C 37.8 °F /  3.2 °C 30.1in /  1019.1hPa SW 5mph /  8.0km/h 9mph /  14.5km/h 62% 0in /  0.0mm CLR
07:00 50.4 °F /  10.2 °C 37.8 °F /  3.2 °C 30.1in /  1019.1hPa SW 6mph /  9.7km/h 7mph /  11.3km/h 62% 0in /  0.0mm CLR
07:05 50.4 °F /  10.2 °C 37.8 °F /  3.2 °C 30.1in /  1019.4hPa SW 5.4mph /  8.7km/h 5.8mph /  9.3km/h 62% 0in /  0.0mm CLR
07:10 50.5 °F /  10.3 °C 37.9 °F /  3.3 °C 30.1in /  1019.4hPa SSW 5mph /  8.0km/h 7mph /  11.3km/h 62% 0in /  0.0mm CLR
07:15 50.2 °F /  10.1 °C 38.1 °F /  3.4 °C 30.1in /  1019.4hPa SSW 5mph /  8.0km/h 9mph /  14.5km/h 63% 0in /  0.0mm CLR
07:20 49.8 °F /  9.9 °C 37.8 °F /  3.2 °C 30.1in /  1019.4hPa SSW 5.4mph /  8.7km/h 9.2mph /  14.8km/h 63% 0in /  0.0mm CLR
07:25 49.8 °F /  9.9 °C 37.8 °F /  3.2 °C 30.1in /  1019.4hPa South 5.4mph /  8.7km/h 6.9mph /  11.1km/h 63% 0in /  0.0mm CLR
07:30 49.6 °F /  9.8 °C 37.6 °F /  3.1 °C 30.1in /  1019.4hPa SSW 5.4mph /  8.7km/h 6.9mph /  11.1km/h 63% 0in /  0.0mm CLR
07:34 49.8 °F /  9.9 °C 37.8 °F /  3.2 °C 30.1in /  1019.6hPa SSW 5.4mph /  8.7km/h 6.9mph /  11.1km/h 63% 0in /  0.0mm CLR
07:40 50 °F /  10.0 °C 37.9 °F /  3.3 °C 30.1in /  1019.6hPa SSW 5mph /  8.0km/h 8mph /  12.9km/h 63% 0in /  0.0mm CLR
07:45 50.2 °F /  10.1 °C 37.8 °F /  3.2 °C 30.1in /  1019.6hPa SSW 5.2mph /  8.4km/h 6.9mph /  11.1km/h 62% 0in /  0.0mm CLR
07:50 50.4 °F /  10.2 °C 37.8 °F /  3.2 °C 30.1in /  1019.7hPa SSW 5.9mph /  9.5km/h 8.1mph /  13.0km/h 62% 0in /  0.0mm CLR
07:55 50.4 °F /  10.2 °C 37.8 °F /  3.2 °C 30.1in /  1019.7hPa SSW 6mph /  9.7km/h 9mph /  14.5km/h 62% 0in /  0.0mm CLR
08:00 50.7 °F /  10.4 °C 37.2 °F /  2.9 °C 30.1in /  1019.7hPa SSW 6mph /  9.7km/h 10mph /  16.1km/h 60% 0in /  0.0mm CLR
08:05 51.1 °F /  10.6 °C 37.8 °F /  3.2 °C 30.1in /  1019.7hPa SW 5.9mph /  9.5km/h 6.9mph /  11.1km/h 60% 0in /  0.0mm CLR
08:10 51.3 °F /  10.7 °C 37.4 °F /  3.0 °C 30.1in /  1019.7hPa SW 6mph /  9.7km/h 7mph /  11.3km/h 59% 0in /  0.0mm CLR
08:15 51.4 °F /  10.8 °C 37.6 °F /  3.1 °C 30.1in /  1019.7hPa SW 6mph /  9.7km/h 6mph /  9.7km/h 59% 0in /  0.0mm CLR
08:20 52 °F /  11.1 °C 37.8 °F /  3.2 °C 30.1in /  1019.7hPa SSW 4mph /  6.4km/h 5.8mph /  9.3km/h 58% 0in /  0.0mm CLR
08:25 52.2 °F /  11.2 °C 37.8 °F /  3.2 °C 30.1in /  1019.7hPa SW 5mph /  8.0km/h 6mph /  9.7km/h 58% 0in /  0.0mm CLR
08:30 52.3 °F /  11.3 °C 37.6 °F /  3.1 °C 30.1in /  1019.7hPa SW 5mph /  8.0km/h 6mph /  9.7km/h 57% 0in /  0.0mm CLR
08:35 52.7 °F /  11.5 °C 37.4 °F /  3.0 °C 30.1in /  1019.8hPa SSW 4mph /  6.4km/h 5.8mph /  9.3km/h 56% 0in /  0.0mm CLR
08:40 52.9 °F /  11.6 °C 37.6 °F /  3.1 °C 30.1in /  1019.8hPa SW 4.3mph /  6.9km/h 5.4mph /  8.7km/h 56% 0in /  0.0mm CLR
08:45 53.1 °F /  11.7 °C 37.2 °F /  2.9 °C 30.1in /  1019.8hPa SW 5mph /  8.0km/h 9mph /  14.5km/h 55% 0in /  0.0mm CLR
08:50 53.2 °F /  11.8 °C 37.6 °F /  3.1 °C 30.1in /  1019.8hPa SW 5mph /  8.0km/h 7mph /  11.3km/h 55% 0in /  0.0mm CLR
08:55 53.4 °F /  11.9 °C 37.2 °F /  2.9 °C 30.1in /  1019.8hPa West 4.3mph /  6.9km/h 6.9mph /  11.1km/h 54% 0in /  0.0mm CLR
09:00 53.4 °F /  11.9 °C 37.2 °F /  2.9 °C 30.1in /  1019.8hPa WSW 5mph /  8.0km/h 8mph /  12.9km/h 54% 0in /  0.0mm CLR
09:05 53.8 °F /  12.1 °C 37.6 °F /  3.1 °C 30.1in /  1019.9hPa WSW 4.7mph /  7.6km/h 5.8mph /  9.3km/h 54% 0in /  0.0mm CLR
09:10 54.1 °F /  12.3 °C 37.8 °F /  3.2 °C 30.1in /  1019.9hPa West 4.7mph /  7.6km/h 6.9mph /  11.1km/h 54% 0in /  0.0mm CLR
09:15 54.3 °F /  12.4 °C 37.9 °F /  3.3 °C 30.1in /  1019.9hPa WSW 4.7mph /  7.6km/h 5.8mph /  9.3km/h 54% 0in /  0.0mm CLR
09:20 54.9 °F /  12.7 °C 37.9 °F /  3.3 °C 30.1in /  1020.0hPa WSW 5mph /  8.0km/h 7mph /  11.3km/h 53% 0in /  0.0mm CLR
09:25 55.2 °F /  12.9 °C 37.9 °F /  3.3 °C 30.1in /  1020.0hPa SW 4.3mph /  6.9km/h 8.1mph /  13.0km/h 52% 0in /  0.0mm CLR
09:30 55.6 °F /  13.1 °C 38.1 °F /  3.4 °C 30.1in /  1020.0hPa WSW 5mph /  8.0km/h 7mph /  11.3km/h 52% 0in /  0.0mm CLR
09:35 55.9 °F /  13.3 °C 38.7 °F /  3.7 °C 30.1in /  1020.2hPa SW 4.7mph /  7.6km/h 6.9mph /  11.1km/h 52% 0in /  0.0mm CLR
09:40 56.3 °F /  13.5 °C 38.5 °F /  3.6 °C 30.1in /  1020.2hPa SW 5mph /  8.0km/h 8mph /  12.9km/h 51% 0in /  0.0mm CLR
09:45 56.7 °F /  13.7 °C 38.7 °F /  3.7 °C 30.1in /  1020.2hPa SSE 4.7mph /  7.6km/h 6.9mph /  11.1km/h 51% 0in /  0.0mm CLR
09:50 57.2 °F /  14.0 °C 38.7 °F /  3.7 °C 30.1in /  1020.2hPa SW 4.3mph /  6.9km/h 6.9mph /  11.1km/h 50% 0in /  0.0mm CLR
09:55 57.4 °F /  14.1 °C 38.5 °F /  3.6 °C 30.1in /  1020.2hPa SSW 5mph /  8.0km/h 8mph /  12.9km/h 49% 0in /  0.0mm CLR
10:00 57.7 °F /  14.3 °C 38.7 °F /  3.7 °C 30.1in /  1020.2hPa SW 5mph /  8.0km/h 8mph /  12.9km/h 49% 0in /  0.0mm CLR
10:05 57.9 °F /  14.4 °C 37.9 °F /  3.3 °C 30.1in /  1020.1hPa WSW 5mph /  8.0km/h 8mph /  12.9km/h 47% 0in /  0.0mm CLR
10:10 58.5 °F /  14.7 °C 38.3 °F /  3.5 °C 30.1in /  1020.1hPa NNW 3.6mph /  5.8km/h 3.5mph /  5.6km/h 47% 0in /  0.0mm CLR
10:15 58.8 °F /  14.9 °C 38.1 °F /  3.4 °C 30.1in /  1020.1hPa West 3mph /  4.8km/h 6mph /  9.7km/h 46% 0in /  0.0mm CLR
10:20 59.2 °F /  15.1 °C 37.2 °F /  2.9 °C 30.1in /  1020.1hPa West 2.9mph /  4.7km/h 5.8mph /  9.3km/h 44% 0in /  0.0mm CLR
10:25 59.4 °F /  15.2 °C 37.4 °F /  3.0 °C 30.1in /  1020.1hPa WNW 2.9mph /  4.7km/h 3.5mph /  5.6km/h 44% 0in /  0.0mm CLR
10:30 60.1 °F /  15.6 °C 38.1 °F /  3.4 °C 30.1in /  1020.1hPa SW 3.1mph /  5.0km/h 6.9mph /  11.1km/h 44% 0in /  0.0mm CLR
10:35 60.3 °F /  15.7 °C 37.8 °F /  3.2 °C 30.1in /  1020.1hPa WSW 3mph /  4.8km/h 6mph /  9.7km/h 43% 0in /  0.0mm CLR
10:39 60.6 °F /  15.9 °C 37.9 °F /  3.3 °C 30.1in /  1020.1hPa NW 3.6mph /  5.8km/h 2.3mph /  3.7km/h 43% 0in /  0.0mm CLR
10:45 61.2 °F /  16.2 °C 37.9 °F /  3.3 °C 30.1in /  1020.1hPa West 3.6mph /  5.8km/h 5.8mph /  9.3km/h 42% 0in /  0.0mm CLR
10:50 61.5 °F /  16.4 °C 37.6 °F /  3.1 °C 30.1in /  1020.0hPa West 2.4mph /  3.9km/h 5.8mph /  9.3km/h 41% 0in /  0.0mm CLR
10:55 61.9 °F /  16.6 °C 37.9 °F /  3.3 °C 30.1in /  1020.0hPa West 2mph /  3.2km/h 5mph /  8.0km/h 41% 0in /  0.0mm CLR
11:00 62.4 °F /  16.9 °C 37.8 °F /  3.2 °C 30.1in /  1020.0hPa SSW 2mph /  3.2km/h 6mph /  9.7km/h 40% 0in /  0.0mm CLR
11:05 63.1 °F /  17.3 °C 37.8 °F /  3.2 °C 30.1in /  1019.8hPa WNW 2.9mph /  4.7km/h 5.8mph /  9.3km/h 39% 0in /  0.0mm CLR
11:10 63.3 °F /  17.4 °C 37.9 °F /  3.3 °C 30.1in /  1019.8hPa WNW 2mph /  3.2km/h 5mph /  8.0km/h 39% 0in /  0.0mm CLR
11:15 64.2 °F /  17.9 °C 38.1 °F /  3.4 °C 30.1in /  1019.8hPa NNE 2.4mph /  3.9km/h 3.5mph /  5.6km/h 38% 0in /  0.0mm CLR
11:20 64.9 °F /  18.3 °C 37.9 °F /  3.3 °C 30.1in /  1019.7hPa NW 1.8mph /  2.9km/h 4.6mph /  7.4km/h 37% 0in /  0.0mm CLR
11:25 64.9 °F /  18.3 °C 38.1 °F /  3.4 °C 30.1in /  1019.7hPa NNW 2mph /  3.2km/h 5mph /  8.0km/h 37% 0in /  0.0mm CLR
11:30 65.7 °F /  18.7 °C 37.9 °F /  3.3 °C 30.1in /  1019.7hPa NNW 2mph /  3.2km/h 6mph /  9.7km/h 36% 0in /  0.0mm CLR
11:35 65.8 °F /  18.8 °C 38.1 °F /  3.4 °C 30.1in /  1019.5hPa ESE 2mph /  3.2km/h 6mph /  9.7km/h 36% 0in /  0.0mm CLR
11:40 65.8 °F /  18.8 °C 38.1 °F /  3.4 °C 30.1in /  1019.5hPa SSE 3mph /  4.8km/h 5mph /  8.0km/h 36% 0in /  0.0mm CLR
11:45 66.2 °F /  19.0 °C 38.5 °F /  3.6 °C 30.1in /  1019.5hPa NE 3.1mph /  5.0km/h 4.6mph /  7.4km/h 36% 0in /  0.0mm CLR
11:49 66.4 °F /  19.1 °C 38.7 °F /  3.7 °C 30.1in /  1019.2hPa East 2.9mph /  4.7km/h 4.6mph /  7.4km/h 36% 0in /  0.0mm CLR
11:55 66.7 °F /  19.3 °C 38.1 °F /  3.4 °C 30.1in /  1019.2hPa East 2mph /  3.2km/h 9mph /  14.5km/h 35% 0in /  0.0mm CLR
12:00 66.6 °F /  19.2 °C 38.8 °F /  3.8 °C 30.1in /  1019.2hPa ENE 5mph /  8.0km/h 9mph /  14.5km/h 36% 0in /  0.0mm CLR
12:05 66.6 °F /  19.2 °C 39.6 °F /  4.2 °C 30.1in /  1019.0hPa North 4mph /  6.4km/h 8.1mph /  13.0km/h 37% 0in /  0.0mm CLR
12:10 66.6 °F /  19.2 °C 39.6 °F /  4.2 °C 30.1in /  1019.0hPa NNE 5mph /  8.0km/h 11mph /  17.7km/h 37% 0in /  0.0mm CLR
12:15 66.6 °F /  19.2 °C 39.6 °F /  4.2 °C 30.1in /  1019.0hPa NE 4.7mph /  7.6km/h 2.3mph /  3.7km/h 37% 0in /  0.0mm CLR
12:20 66.9 °F /  19.4 °C 39.9 °F /  4.4 °C 30.1in /  1018.7hPa NNE 5mph /  8.0km/h 7mph /  11.3km/h 37% 0in /  0.0mm CLR
12:25 67.5 °F /  19.7 °C 40.3 °F /  4.6 °C 30.1in /  1018.7hPa NW 4mph /  6.4km/h 9.2mph /  14.8km/h 37% 0in /  0.0mm CLR
12:30 67.5 °F /  19.7 °C 41 °F /  5.0 °C 30.1in /  1018.7hPa North 5mph /  8.0km/h 10mph /  16.1km/h 38% 0in /  0.0mm CLR
12:35 67.6 °F /  19.8 °C 40.5 °F /  4.7 °C 30.1in /  1018.5hPa NNE 5mph /  8.0km/h 12mph /  19.3km/h 37% 0in /  0.0mm CLR
12:40 67.6 °F /  19.8 °C 40.5 °F /  4.7 °C 30.1in /  1018.5hPa NE 5.9mph /  9.5km/h 5.8mph /  9.3km/h 37% 0in /  0.0mm CLR
12:45 67.5 °F /  19.7 °C 40.3 °F /  4.6 °C 30.1in /  1018.5hPa ENE 6mph /  9.7km/h 9mph /  14.5km/h 37% 0in /  0.0mm CLR
12:50 68.2 °F /  20.1 °C 40.8 °F /  4.9 °C 30.1in /  1018.2hPa NE 5.2mph /  8.4km/h 5.8mph /  9.3km/h 37% 0in /  0.0mm CLR
12:55 68.4 °F /  20.2 °C 41.2 °F /  5.1 °C 30.1in /  1018.2hPa ENE 5mph /  8.0km/h 9mph /  14.5km/h 37% 0in /  0.0mm CLR
13:00 68.5 °F /  20.3 °C 40.5 °F /  4.7 °C 30.1in /  1018.2hPa NE 5mph /  8.0km/h 7mph /  11.3km/h 36% 0in /  0.0mm CLR
13:05 69.3 °F /  20.7 °C 41.2 °F /  5.1 °C 30.1in /  1018.1hPa ENE 4mph /  6.4km/h 8.1mph /  13.0km/h 36% 0in /  0.0mm CLR
13:10 69.3 °F /  20.7 °C 41.2 °F /  5.1 °C 30.1in /  1018.1hPa North 5mph /  8.0km/h 9mph /  14.5km/h 36% 0in /  0.0mm CLR
13:15 69.6 °F /  20.9 °C 40.6 °F /  4.8 °C 30.1in /  1018.1hPa NNE 5mph /  8.0km/h 7mph /  11.3km/h 35% 0in /  0.0mm CLR
13:20 70 °F /  21.1 °C 40.3 °F /  4.6 °C 30.1in /  1017.8hPa ENE 3mph /  4.8km/h 8mph /  12.9km/h 34% 0in /  0.0mm CLR
13:25 70.2 °F /  21.2 °C 40.5 °F /  4.7 °C 30.1in /  1017.8hPa NE 3.6mph /  5.8km/h 7.4mph /  11.9km/h 34% 0in /  0.0mm CLR
13:30 70 °F /  21.1 °C 39.6 °F /  4.2 °C 30.1in /  1017.8hPa NNE 6mph /  9.7km/h 13mph /  20.9km/h 33% 0in /  0.0mm CLR
13:35 69.6 °F /  20.9 °C 39.9 °F /  4.4 °C 30.1in /  1017.6hPa ENE 6mph /  9.7km/h 9mph /  14.5km/h 34% 0in /  0.0mm CLR
13:40 70 °F /  21.1 °C 40.3 °F /  4.6 °C 30.1in /  1017.6hPa NE 5.2mph /  8.4km/h 11.8mph /  19.0km/h 34% 0in /  0.0mm CLR
13:45 70 °F /  21.1 °C 40.3 °F /  4.6 °C 30.1in /  1017.6hPa NE 5.2mph /  8.4km/h 10.4mph /  16.7km/h 34% 0in /  0.0mm CLR
13:50 70.3 °F /  21.3 °C 41.4 °F /  5.2 °C 30in /  1017.3hPa NE 7mph /  11.3km/h 12mph /  19.3km/h 35% 0in /  0.0mm CLR
13:54 70.2 °F /  21.2 °C 40.5 °F /  4.7 °C 30in /  1017.3hPa NNE 6.4mph /  10.3km/h 8.1mph /  13.0km/h 34% 0in /  0.0mm CLR
13:58 70.3 °F /  21.3 °C 40.6 °F /  4.8 °C 30in /  1017.3hPa NE 7.4mph /  11.9km/h 11.5mph /  18.5km/h 34% 0in /  0.0mm CLR
14:03 70.7 °F /  21.5 °C 40.3 °F /  4.6 °C 30in /  1017.1hPa North 7.4mph /  11.9km/h 9.2mph /  14.8km/h 33% 0in /  0.0mm CLR
14:08 70.5 °F /  21.4 °C 39.9 °F /  4.4 °C 30in /  1017.1hPa NE 5.4mph /  8.7km/h 9.2mph /  14.8km/h 33% 0in /  0.0mm CLR
14:13 70.2 °F /  21.2 °C 39.7 °F /  4.3 °C 30in /  1017.1hPa WNW 5.4mph /  8.7km/h 6.9mph /  11.1km/h 33% 0in /  0.0mm CLR
14:17 70.7 °F /  21.5 °C 39.4 °F /  4.1 °C 30in /  1017.1hPa ESE 5.4mph /  8.7km/h 10.4mph /  16.7km/h 32% 0in /  0.0mm CLR
14:22 71.1 °F /  21.7 °C 40.5 °F /  4.7 °C 30in /  1016.8hPa ENE 5.2mph /  8.4km/h 12.7mph /  20.4km/h 33% 0in /  0.0mm CLR
14:26 71.2 °F /  21.8 °C 39.9 °F /  4.4 °C 30in /  1016.8hPa ENE 5.2mph /  8.4km/h 6.9mph /  11.1km/h 32% 0in /  0.0mm CLR
14:31 71.4 °F /  21.9 °C 40.8 °F /  4.9 °C 30in /  1016.8hPa NNE 6.2mph /  10.0km/h 13.8mph /  22.2km/h 33% 0in /  0.0mm CLR
14:36 71.2 °F /  21.8 °C 39.9 °F /  4.4 °C 30in /  1016.6hPa North 6.2mph /  10.0km/h 9.2mph /  14.8km/h 32% 0in /  0.0mm CLR
14:42 71.2 °F /  21.8 °C 39.9 °F /  4.4 °C 30in /  1016.6hPa NNW 6.4mph /  10.3km/h 11.5mph /  18.5km/h 32% 0in /  0.0mm CLR
14:46 71.4 °F /  21.9 °C 39.2 °F /  4.0 °C 30in /  1016.6hPa NE 6.4mph /  10.3km/h 9.2mph /  14.8km/h 31% 0in /  0.0mm CLR
14:51 71.8 °F /  22.1 °C 39.6 °F /  4.2 °C 30in /  1016.3hPa NNE 6.4mph /  10.3km/h 10.4mph /  16.7km/h 31% 0in /  0.0mm CLR
14:56 71.8 °F /  22.1 °C 39.6 °F /  4.2 °C 30in /  1016.3hPa NNE 6.4mph /  10.3km/h 10.4mph /  16.7km/h 31% 0in /  0.0mm CLR
15:00 71.6 °F /  22.0 °C 39.4 °F /  4.1 °C 30in /  1016.3hPa NE 7mph /  11.3km/h 10mph /  16.1km/h 31% 0in /  0.0mm CLR
15:05 72 °F /  22.2 °C 38.8 °F /  3.8 °C 30in /  1016.0hPa East 7.4mph /  11.9km/h 9.2mph /  14.8km/h 30% 0in /  0.0mm CLR
15:10 72 °F /  22.2 °C 38.8 °F /  3.8 °C 30in /  1016.0hPa ENE 5.9mph /  9.5km/h 6.9mph /  11.1km/h 30% 0in /  0.0mm CLR
15:15 72 °F /  22.2 °C 38.8 °F /  3.8 °C 30in /  1016.0hPa NNW 5.9mph /  9.5km/h 10.4mph /  16.7km/h 30% 0in /  0.0mm CLR
15:20 72 °F /  22.2 °C 38.8 °F /  3.8 °C 30in /  1015.8hPa NE 5.9mph /  9.5km/h 12.7mph /  20.4km/h 30% 0in /  0.0mm CLR
15:25 71.6 °F /  22.0 °C 38.5 °F /  3.6 °C 30in /  1015.8hPa NE 5.9mph /  9.5km/h 11.5mph /  18.5km/h 30% 0in /  0.0mm CLR
15:29 71.8 °F /  22.1 °C 38.7 °F /  3.7 °C 30in /  1015.8hPa East 6.9mph /  11.1km/h 11.5mph /  18.5km/h 30% 0in /  0.0mm CLR
15:34 72 °F /  22.2 °C 37.9 °F /  3.3 °C 30in /  1015.6hPa NNE 6.9mph /  11.1km/h 8.1mph /  13.0km/h 29% 0in /  0.0mm CLR
15:39 72 °F /  22.2 °C 37.9 °F /  3.3 °C 30in /  1015.6hPa ENE 6.4mph /  10.3km/h 9.2mph /  14.8km/h 29% 0in /  0.0mm CLR
15:45 71.8 °F /  22.1 °C 37.8 °F /  3.2 °C 30in /  1015.6hPa ESE 6.4mph /  10.3km/h 9.2mph /  14.8km/h 29% 0in /  0.0mm CLR
15:49 71.8 °F /  22.1 °C 37.8 °F /  3.2 °C 30in /  1015.5hPa NNE 6.9mph /  11.1km/h 12.7mph /  20.4km/h 29% 0in /  0.0mm CLR
15:54 71.8 °F /  22.1 °C 37.8 °F /  3.2 °C 30in /  1015.5hPa ENE 6.9mph /  11.1km/h 8.1mph /  13.0km/h 29% 0in /  0.0mm CLR
15:59 72 °F /  22.2 °C 37.9 °F /  3.3 °C 30in /  1015.5hPa ENE 6.9mph /  11.1km/h 9.2mph /  14.8km/h 29% 0in /  0.0mm CLR
16:03 72 °F /  22.2 °C 37 °F /  2.8 °C 30in /  1015.3hPa NE 6.9mph /  11.1km/h 12.7mph /  20.4km/h 28% 0in /  0.0mm CLR
16:08 71.4 °F /  21.9 °C 37.6 °F /  3.1 °C 30in /  1015.3hPa NE 7.6mph /  12.2km/h 10.4mph /  16.7km/h 29% 0in /  0.0mm CLR
16:14 71.2 °F /  21.8 °C 37.2 °F /  2.9 °C 30in /  1015.3hPa East 7.6mph /  12.2km/h 9.2mph /  14.8km/h 29% 0in /  0.0mm CLR
16:18 71.4 °F /  21.9 °C 36.7 °F /  2.6 °C 30in /  1015.2hPa ENE 6.4mph /  10.3km/h 11.5mph /  18.5km/h 28% 0in /  0.0mm CLR
16:23 71.6 °F /  22.0 °C 36.9 °F /  2.7 °C 30in /  1015.2hPa NE 6.4mph /  10.3km/h 12.7mph /  20.4km/h 28% 0in /  0.0mm CLR
16:28 71.4 °F /  21.9 °C 36.7 °F /  2.6 °C 30in /  1015.2hPa ENE 7.6mph /  12.2km/h 12.5mph /  20.1km/h 28% 0in /  0.0mm CLR
16:32 71.2 °F /  21.8 °C 36.3 °F /  2.4 °C 30in /  1015.2hPa NE 7.6mph /  12.2km/h 14mph /  22.5km/h 28% 0in /  0.0mm CLR
16:37 71.1 °F /  21.7 °C 37.2 °F /  2.9 °C 30in /  1015.1hPa NNE 7.6mph /  12.2km/h 10.7mph /  17.2km/h 29% 0in /  0.0mm CLR
16:41 71.1 °F /  21.7 °C 37.2 °F /  2.9 °C 30in /  1015.1hPa NE 8.7mph /  14.0km/h 13.8mph /  22.2km/h 29% 0in /  0.0mm CLR
16:46 70.9 °F /  21.6 °C 37 °F /  2.8 °C 30in /  1015.1hPa NE 8.7mph /  14.0km/h 10.4mph /  16.7km/h 29% 0in /  0.0mm CLR
16:51 70.9 °F /  21.6 °C 36.1 °F /  2.3 °C 30in /  1015.1hPa East 8.5mph /  13.7km/h 15mph /  24.1km/h 28% 0in /  0.0mm CLR
16:55 70.7 °F /  21.5 °C 36 °F /  2.2 °C 30in /  1015.1hPa NE 8.5mph /  13.7km/h 15mph /  24.1km/h 28% 0in /  0.0mm CLR
17:00 70.5 °F /  21.4 °C 35.8 °F /  2.1 °C 30in /  1015.1hPa NE 9mph /  14.5km/h 16mph /  25.7km/h 28% 0in /  0.0mm CLR
17:05 70.5 °F /  21.4 °C 35.8 °F /  2.1 °C 30in /  1015.0hPa NE 9mph /  14.5km/h 16mph /  25.7km/h 28% 0in /  0.0mm CLR
17:09 70.2 °F /  21.2 °C 36.3 °F /  2.4 °C 30in /  1015.0hPa NE 10mph /  16.1km/h 14.7mph /  23.7km/h 29% 0in /  0.0mm CLR
17:14 70 °F /  21.1 °C 37 °F /  2.8 °C 30in /  1015.0hPa NE 10mph /  16.1km/h 12.7mph /  20.4km/h 30% 0in /  0.0mm CLR
17:20 70 °F /  21.1 °C 37 °F /  2.8 °C 30in /  1014.9hPa NE 10.7mph /  17.2km/h 16.1mph /  25.9km/h 30% 0in /  0.0mm CLR
17:24 69.6 °F /  20.9 °C 34.2 °F /  1.2 °C 30in /  1014.9hPa NNE 10.7mph /  17.2km/h 12.7mph /  20.4km/h 27% 0in /  0.0mm CLR
17:29 69.6 °F /  20.9 °C 33.3 °F /  0.7 °C 30in /  1014.9hPa NNE 8.7mph /  14.0km/h 17.3mph /  27.8km/h 26% 0in /  0.0mm CLR
17:33 69.4 °F /  20.8 °C 34 °F /  1.1 °C 30in /  1015.1hPa NNW 8.7mph /  14.0km/h 13.8mph /  22.2km/h 27% 0in /  0.0mm CLR
17:38 69.4 °F /  20.8 °C 34 °F /  1.1 °C 30in /  1015.1hPa East 8.1mph /  13.0km/h 9.2mph /  14.8km/h 27% 0in /  0.0mm CLR
17:43 69.3 °F /  20.7 °C 33.8 °F /  1.0 °C 30in /  1015.1hPa NW 8.1mph /  13.0km/h 10.4mph /  16.7km/h 27% 0in /  0.0mm CLR
17:47 68.9 °F /  20.5 °C 35.2 °F /  1.8 °C 30in /  1015.1hPa NNE 8.1mph /  13.0km/h 13.8mph /  22.2km/h 29% 0in /  0.0mm CLR
17:52 68.7 °F /  20.4 °C 35.2 °F /  1.8 °C 30in /  1015.0hPa NNE 7.6mph /  12.2km/h 12.7mph /  20.4km/h 29% 0in /  0.0mm CLR
17:56 68.5 °F /  20.3 °C 36 °F /  2.2 °C 30in /  1015.0hPa NNE 7.6mph /  12.2km/h 15mph /  24.1km/h 30% 0in /  0.0mm CLR
18:01 68.2 °F /  20.1 °C 35.4 °F /  1.9 °C 30in /  1015.0hPa North 8.1mph /  13.0km/h 16.1mph /  25.9km/h 30% 0in /  0.0mm CLR
18:06 68 °F /  20.0 °C 35.4 °F /  1.9 °C 30in /  1015.2hPa NE 8.1mph /  13.0km/h 13.7mph /  22.0km/h 30% 0in /  0.0mm CLR
18:11 67.8 °F /  19.9 °C 34.3 °F /  1.3 °C 30in /  1015.2hPa NNE 7.6mph /  12.2km/h 13.8mph /  22.2km/h 29% 0in /  0.0mm CLR
18:15 67.8 °F /  19.9 °C 34.3 °F /  1.3 °C 30in /  1015.2hPa NE 7.6mph /  12.2km/h 11.5mph /  18.5km/h 29% 0in /  0.0mm CLR
18:20 67.6 °F /  19.8 °C 36 °F /  2.2 °C 30in /  1015.2hPa ENE 7.6mph /  12.2km/h 15.6mph /  25.1km/h 31% 0in /  0.0mm CLR
18:25 67.3 °F /  19.6 °C 36.3 °F /  2.4 °C 30in /  1015.2hPa ENE 7.6mph /  12.2km/h 10.4mph /  16.7km/h 32% 0in /  0.0mm CLR
18:30 67.3 °F /  19.6 °C 36.3 °F /  2.4 °C 30in /  1015.2hPa NE 9.2mph /  14.8km/h 9.2mph /  14.8km/h 32% 0in /  0.0mm CLR
18:35 67.3 °F /  19.6 °C 36.3 °F /  2.4 °C 30in /  1015.5hPa NE 9mph /  14.5km/h 13mph /  20.9km/h 32% 0in /  0.0mm CLR
18:39 66.9 °F /  19.4 °C 36.1 °F /  2.3 °C 30in /  1015.5hPa NE 7.4mph /  11.9km/h 10.4mph /  16.7km/h 32% 0in /  0.0mm CLR
18:44 66.9 °F /  19.4 °C 36.1 °F /  2.3 °C 30in /  1015.5hPa ENE 7.4mph /  11.9km/h 11.5mph /  18.5km/h 32% 0in /  0.0mm CLR
18:48 66.6 °F /  19.2 °C 36.5 °F /  2.5 °C 30in /  1015.4hPa NE 7.6mph /  12.2km/h 9.2mph /  14.8km/h 33% 0in /  0.0mm CLR
18:53 66.4 °F /  19.1 °C 36.3 °F /  2.4 °C 30in /  1015.4hPa ENE 7.6mph /  12.2km/h 11.8mph /  19.0km/h 33% 0in /  0.0mm CLR
18:58 66 °F /  18.9 °C 36.1 °F /  2.3 °C 30in /  1015.4hPa NE 7.6mph /  12.2km/h 11.5mph /  18.5km/h 33% 0in /  0.0mm CLR
19:02 65.8 °F /  18.8 °C 36.7 °F /  2.6 °C 30in /  1015.4hPa NE 7.6mph /  12.2km/h 10.4mph /  16.7km/h 34% 0in /  0.0mm CLR
19:07 65.7 °F /  18.7 °C 36.5 °F /  2.5 °C 30in /  1015.6hPa NE 7.6mph /  12.2km/h 10.4mph /  16.7km/h 34% 0in /  0.0mm CLR
19:12 65.1 °F /  18.4 °C 36.9 °F /  2.7 °C 30in /  1015.6hPa NE 6.9mph /  11.1km/h 10.4mph /  16.7km/h 35% 0in /  0.0mm CLR
19:16 64.9 °F /  18.3 °C 36.7 °F /  2.6 °C 30in /  1015.6hPa ENE 6.9mph /  11.1km/h 9.2mph /  14.8km/h 35% 0in /  0.0mm CLR
19:21 64.8 °F /  18.2 °C 37.2 °F /  2.9 °C 30in /  1015.7hPa NE 6.9mph /  11.1km/h 10.4mph /  16.7km/h 36% 0in /  0.0mm CLR
19:25 64.6 °F /  18.1 °C 37 °F /  2.8 °C 30in /  1015.7hPa NE 6.9mph /  11.1km/h 6.9mph /  11.1km/h 36% 0in /  0.0mm CLR
19:30 64.2 °F /  17.9 °C 38.1 °F /  3.4 °C 30in /  1015.7hPa NNE 6.4mph /  10.3km/h 8.1mph /  13.0km/h 38% 0in /  0.0mm CLR
19:35 63.9 °F /  17.7 °C 37.8 °F /  3.2 °C 30in /  1015.9hPa NE 7mph /  11.3km/h 9mph /  14.5km/h 38% 0in /  0.0mm CLR
19:39 63.3 °F /  17.4 °C 37.9 °F /  3.3 °C 30in /  1015.9hPa NNE 5.9mph /  9.5km/h 8.1mph /  13.0km/h 39% 0in /  0.0mm CLR
19:44 63 °F /  17.2 °C 38.1 °F /  3.4 °C 30in /  1015.9hPa NE 5.9mph /  9.5km/h 9.2mph /  14.8km/h 40% 0in /  0.0mm CLR
19:49 62.6 °F /  17.0 °C 37.9 °F /  3.3 °C 30in /  1015.8hPa NNE 6.4mph /  10.3km/h 10.4mph /  16.7km/h 40% 0in /  0.0mm CLR
19:53 62.2 °F /  16.8 °C 38.1 °F /  3.4 °C 30in /  1015.8hPa NNE 6.4mph /  10.3km/h 9.2mph /  14.8km/h 41% 0in /  0.0mm CLR
19:58 62.1 °F /  16.7 °C 38.7 °F /  3.7 °C 30in /  1015.8hPa NE 6.9mph /  11.1km/h 11.5mph /  18.5km/h 42% 0in /  0.0mm CLR
20:02 61.9 °F /  16.6 °C 39 °F /  3.9 °C 30in /  1015.8hPa NE 6.9mph /  11.1km/h 9.2mph /  14.8km/h 43% 0in /  0.0mm CLR
20:07 61.5 °F /  16.4 °C 39.4 °F /  4.1 °C 30in /  1015.8hPa NNE 6.9mph /  11.1km/h 8.1mph /  13.0km/h 44% 0in /  0.0mm CLR
20:11 61.3 °F /  16.3 °C 40.5 °F /  4.7 °C 30in /  1015.8hPa NNE 6.2mph /  10.0km/h 11.5mph /  18.5km/h 46% 0in /  0.0mm CLR
20:16 61 °F /  16.1 °C 39.9 °F /  4.4 °C 30in /  1015.8hPa NE 6.2mph /  10.0km/h 8.1mph /  13.0km/h 46% 0in /  0.0mm CLR
20:22 60.6 °F /  15.9 °C 40.8 °F /  4.9 °C 30in /  1015.9hPa NE 6.2mph /  10.0km/h 9.2mph /  14.8km/h 48% 0in /  0.0mm CLR
20:26 60.6 °F /  15.9 °C 41.4 °F /  5.2 °C 30in /  1015.9hPa NNE 6.2mph /  10.0km/h 10.4mph /  16.7km/h 49% 0in /  0.0mm CLR
20:31 60.4 °F /  15.8 °C 41.7 °F /  5.4 °C 30in /  1015.9hPa ENE 6.4mph /  10.3km/h 10.4mph /  16.7km/h 50% 0in /  0.0mm CLR
20:36 60.4 °F /  15.8 °C 42.3 °F /  5.7 °C 30in /  1016.1hPa NE 6.4mph /  10.3km/h 9.2mph /  14.8km/h 51% 0in /  0.0mm CLR
20:40 60.3 °F /  15.7 °C 42.6 °F /  5.9 °C 30in /  1016.1hPa NE 6.4mph /  10.3km/h 9.2mph /  14.8km/h 52% 0in /  0.0mm CLR
20:45 60.1 °F /  15.6 °C 42.4 °F /  5.8 °C 30in /  1016.1hPa NE 6.4mph /  10.3km/h 9.7mph /  15.6km/h 52% 0in /  0.0mm CLR
20:50 59.7 °F /  15.4 °C 43 °F /  6.1 °C 30in /  1016.1hPa ENE 6.9mph /  11.1km/h 12.7mph /  20.4km/h 54% 0in /  0.0mm CLR
20:54 59.7 °F /  15.4 °C 43.5 °F /  6.4 °C 30in /  1016.1hPa ENE 6.9mph /  11.1km/h 12.7mph /  20.4km/h 55% 0in /  0.0mm CLR
20:59 59.7 °F /  15.4 °C 43.5 °F /  6.4 °C 30in /  1016.1hPa NE 7.6mph /  12.2km/h 10.4mph /  16.7km/h 55% 0in /  0.0mm CLR
21:03 59.7 °F /  15.4 °C 43.5 °F /  6.4 °C 30in /  1016.1hPa NE 7.6mph /  12.2km/h 6.9mph /  11.1km/h 55% 0in /  0.0mm CLR
21:08 59.5 °F /  15.3 °C 43.3 °F /  6.3 °C 30in /  1016.1hPa NE 5.2mph /  8.4km/h 4.6mph /  7.4km/h 55% 0in /  0.0mm CLR
21:16 59.5 °F /  15.3 °C 43.3 °F /  6.3 °C 30in /  1016.1hPa ENE 5.2mph /  8.4km/h 3.5mph /  5.6km/h 55% 0in /  0.0mm CLR
21:24 59.4 °F /  15.2 °C 43.2 °F /  6.2 °C 30in /  1016.3hPa NE 2.9mph /  4.7km/h 4.6mph /  7.4km/h 55% 0in /  0.0mm CLR
21:32 59.2 °F /  15.1 °C 43 °F /  6.1 °C 30in /  1016.3hPa NE 2.9mph /  4.7km/h 4.6mph /  7.4km/h 55% 0in /  0.0mm CLR
21:40 58.8 °F /  14.9 °C 43.2 °F /  6.2 °C 30in /  1016.2hPa NNE 2.9mph /  4.7km/h 5.4mph /  8.7km/h 56% 0in /  0.0mm CLR
21:49 58.3 °F /  14.6 °C 43.2 °F /  6.2 °C 30in /  1016.4hPa NNE 3.1mph /  5.0km/h 4.6mph /  7.4km/h 57% 0in /  0.0mm CLR
21:58 57.7 °F /  14.3 °C 43.5 °F /  6.4 °C 30in /  1016.4hPa NNE 2.4mph /  3.9km/h 4.6mph /  7.4km/h 59% 0in /  0.0mm CLR
22:06 57.4 °F /  14.1 °C 43.5 °F /  6.4 °C 30in /  1016.4hPa NNE 2.4mph /  3.9km/h 4.6mph /  7.4km/h 60% 0in /  0.0mm CLR
22:15 57 °F /  13.9 °C 43.7 °F /  6.5 °C 30in /  1016.4hPa NNE 3.1mph /  5.0km/h 2.4mph /  3.9km/h 61% 0in /  0.0mm CLR
22:23 56.8 °F /  13.8 °C 44.1 °F /  6.7 °C 30in /  1016.6hPa NNE 1.8mph /  2.9km/h 4.6mph /  7.4km/h 62% 0in /  0.0mm CLR
22:29 56.5 °F /  13.6 °C 44.1 °F /  6.7 °C 30in /  1016.6hPa NNW 2.4mph /  3.9km/h 4.6mph /  7.4km/h 63% 0in /  0.0mm CLR
22:34 56.5 °F /  13.6 °C 44.1 °F /  6.7 °C 30in /  1016.7hPa NNE 2.4mph /  3.9km/h 4.6mph /  7.4km/h 63% 0in /  0.0mm CLR
22:39 56.3 °F /  13.5 °C 44.2 °F /  6.8 °C 30in /  1016.7hPa NNE 2mph /  3.2km/h 2.4mph /  3.9km/h 64% 0in /  0.0mm CLR
22:44 56.1 °F /  13.4 °C 44.1 °F /  6.7 °C 30in /  1016.7hPa NNE 2mph /  3.2km/h 3.5mph /  5.6km/h 64% 0in /  0.0mm CLR
22:50 56.1 °F /  13.4 °C 44.4 °F /  6.9 °C 30in /  1016.8hPa NNE 2mph /  3.2km/h 2.3mph /  3.7km/h 65% 0in /  0.0mm CLR
22:55 56.1 °F /  13.4 °C 44.4 °F /  6.9 °C 30in /  1016.8hPa NNE 2mph /  3.2km/h 5mph /  8.0km/h 65% 0in /  0.0mm CLR
23:00 55.9 °F /  13.3 °C 44.4 °F /  6.9 °C 30in /  1016.8hPa NE 2mph /  3.2km/h 5mph /  8.0km/h 65% 0in /  0.0mm CLR
23:05 55.9 °F /  13.3 °C 44.2 °F /  6.8 °C 30in /  1016.7hPa NE 2mph /  3.2km/h 5mph /  8.0km/h 65% 0in /  0.0mm CLR
23:10 55.8 °F /  13.2 °C 44.2 °F /  6.8 °C 30in /  1016.7hPa NE 3.1mph /  5.0km/h 4.6mph /  7.4km/h 65% 0in /  0.0mm CLR
23:15 55.6 °F /  13.1 °C 44.1 °F /  6.7 °C 30in /  1016.7hPa NE 3.1mph /  5.0km/h 4.6mph /  7.4km/h 65% 0in /  0.0mm CLR
23:20 55.2 °F /  12.9 °C 44.1 °F /  6.7 °C 30in /  1016.7hPa NE 2mph /  3.2km/h   66% 0in /  0.0mm CLR
23:25 55 °F /  12.8 °C 43.9 °F /  6.6 °C 30in /  1016.7hPa NE 2mph /  3.2km/h 2.3mph /  3.7km/h 66% 0in /  0.0mm CLR
23:30 54.9 °F /  12.7 °C 43.7 °F /  6.5 °C 30in /  1016.7hPa Calm   2.3mph /  3.7km/h 66% 0in /  0.0mm CLR
23:35 54.7 °F /  12.6 °C 43.5 °F /  6.4 °C 30in /  1016.8hPa Calm     66% 0in /  0.0mm CLR
23:40 54.7 °F /  12.6 °C 43.5 °F /  6.4 °C 30in /  1016.8hPa Calm     66% 0in /  0.0mm CLR
23:45 54.5 °F /  12.5 °C 40.5 °F /  4.7 °C 30in /  1016.8hPa Calm     59% 0in /  0.0mm CLR
23:50 54.5 °F /  12.5 °C 43 °F /  6.1 °C 30in /  1016.9hPa Calm     65% 0in /  0.0mm CLR
23:55 54.3 °F /  12.4 °C 43.2 °F /  6.2 °C 30in /  1016.9hPa Calm     66% 0in /  0.0mm CLR
Murcia-Puente Tocinos, España
Compliments of Weather Underground - 2.75 mb

La estación de MeteoMurcia.com, publica sus datos en los siguientes proyectos:

Weather Underground PWS IMURCIAP2 Meteoclimatic www.awekas.at

W3Counter
Web Analytics